sensor_id;sensor_type;location;lat;lon;timestamp;P1;durP1;ratioP1;P2;durP2;ratioP2
62435;SDS011;48480;50.252;18.848;2023-07-29T00:00:49;6.90;;;4.40;;
62435;SDS011;48480;50.252;18.848;2023-07-29T00:03:34;7.30;;;4.30;;
62435;SDS011;48480;50.252;18.848;2023-07-29T00:06:18;4.40;;;3.90;;
62435;SDS011;48480;50.252;18.848;2023-07-29T00:09:02;6.00;;;4.20;;
62435;SDS011;48480;50.252;18.848;2023-07-29T00:11:47;5.00;;;4.20;;
62435;SDS011;48480;50.252;18.848;2023-07-29T00:14:31;5.40;;;4.30;;
62435;SDS011;48480;50.252;18.848;2023-07-29T00:17:15;5.10;;;4.20;;
62435;SDS011;48480;50.252;18.848;2023-07-29T00:19:59;5.30;;;4.40;;
62435;SDS011;48480;50.252;18.848;2023-07-29T00:22:43;7.00;;;4.20;;
62435;SDS011;48480;50.252;18.848;2023-07-29T00:25:28;4.80;;;4.10;;
62435;SDS011;48480;50.252;18.848;2023-07-29T00:28:12;5.80;;;4.50;;
62435;SDS011;48480;50.252;18.848;2023-07-29T00:30:57;6.00;;;4.50;;
62435;SDS011;48480;50.252;18.848;2023-07-29T00:33:41;5.10;;;4.10;;
62435;SDS011;48480;50.252;18.848;2023-07-29T00:36:25;6.20;;;4.50;;
62435;SDS011;48480;50.252;18.848;2023-07-29T00:39:09;4.90;;;4.10;;
62435;SDS011;48480;50.252;18.848;2023-07-29T00:41:54;5.60;;;4.00;;
62435;SDS011;48480;50.252;18.848;2023-07-29T00:44:40;5.70;;;4.40;;
62435;SDS011;48480;50.252;18.848;2023-07-29T00:47:24;7.80;;;4.20;;
62435;SDS011;48480;50.252;18.848;2023-07-29T00:50:09;7.70;;;4.20;;
62435;SDS011;48480;50.252;18.848;2023-07-29T00:52:56;5.30;;;4.30;;
62435;SDS011;48480;50.252;18.848;2023-07-29T00:55:41;5.60;;;4.40;;
62435;SDS011;48480;50.252;18.848;2023-07-29T00:58:26;5.20;;;4.20;;
62435;SDS011;48480;50.252;18.848;2023-07-29T01:01:11;5.90;;;4.60;;
62435;SDS011;48480;50.252;18.848;2023-07-29T01:03:57;5.10;;;4.60;;
62435;SDS011;48480;50.252;18.848;2023-07-29T01:10:07;6.20;;;4.50;;
62435;SDS011;48480;50.252;18.848;2023-07-29T01:13:08;7.40;;;4.20;;
62435;SDS011;48480;50.252;18.848;2023-07-29T01:16:02;4.60;;;3.90;;
62435;SDS011;48480;50.252;18.848;2023-07-29T01:19:07;7.80;;;4.40;;
62435;SDS011;48480;50.252;18.848;2023-07-29T01:22:11;5.90;;;4.30;;
62435;SDS011;48480;50.252;18.848;2023-07-29T01:24:58;7.60;;;4.40;;
62435;SDS011;48480;50.252;18.848;2023-07-29T01:27:44;5.90;;;4.30;;
62435;SDS011;48480;50.252;18.848;2023-07-29T01:30:30;6.80;;;4.40;;
62435;SDS011;48480;50.252;18.848;2023-07-29T01:33:26;8.30;;;4.30;;
62435;SDS011;48480;50.252;18.848;2023-07-29T01:36:18;5.20;;;4.20;;
62435;SDS011;48480;50.252;18.848;2023-07-29T01:39:07;7.60;;;4.70;;
62435;SDS011;48480;50.252;18.848;2023-07-29T01:41:53;7.30;;;4.20;;
62435;SDS011;48480;50.252;18.848;2023-07-29T01:44:38;6.10;;;4.20;;
62435;SDS011;48480;50.252;18.848;2023-07-29T01:47:22;6.80;;;4.20;;
62435;SDS011;48480;50.252;18.848;2023-07-29T01:50:07;6.00;;;4.50;;
62435;SDS011;48480;50.252;18.848;2023-07-29T01:52:52;6.00;;;4.60;;
62435;SDS011;48480;50.252;18.848;2023-07-29T01:55:36;7.40;;;4.90;;
62435;SDS011;48480;50.252;18.848;2023-07-29T01:58:20;5.80;;;4.50;;
62435;SDS011;48480;50.252;18.848;2023-07-29T02:01:05;5.40;;;4.40;;
62435;SDS011;48480;50.252;18.848;2023-07-29T02:03:50;8.10;;;5.00;;
62435;SDS011;48480;50.252;18.848;2023-07-29T02:06:38;5.60;;;4.50;;
62435;SDS011;48480;50.252;18.848;2023-07-29T02:09:22;7.40;;;5.20;;
62435;SDS011;48480;50.252;18.848;2023-07-29T02:12:07;7.50;;;5.30;;
62435;SDS011;48480;50.252;18.848;2023-07-29T02:14:51;6.60;;;4.60;;
62435;SDS011;48480;50.252;18.848;2023-07-29T02:17:36;7.90;;;4.80;;
62435;SDS011;48480;50.252;18.848;2023-07-29T02:20:20;9.80;;;4.50;;
62435;SDS011;48480;50.252;18.848;2023-07-29T02:23:04;7.40;;;4.50;;
62435;SDS011;48480;50.252;18.848;2023-07-29T02:25:49;7.40;;;4.20;;
62435;SDS011;48480;50.252;18.848;2023-07-29T02:28:34;6.20;;;4.60;;
62435;SDS011;48480;50.252;18.848;2023-07-29T02:31:20;6.50;;;4.40;;
62435;SDS011;48480;50.252;18.848;2023-07-29T02:34:06;6.70;;;4.50;;
62435;SDS011;48480;50.252;18.848;2023-07-29T02:36:50;6.00;;;4.80;;
62435;SDS011;48480;50.252;18.848;2023-07-29T02:39:37;7.90;;;4.20;;
62435;SDS011;48480;50.252;18.848;2023-07-29T02:42:21;6.40;;;4.60;;
62435;SDS011;48480;50.252;18.848;2023-07-29T02:45:06;5.20;;;4.00;;
62435;SDS011;48480;50.252;18.848;2023-07-29T02:47:53;4.70;;;4.20;;
62435;SDS011;48480;50.252;18.848;2023-07-29T02:50:37;8.30;;;4.90;;
62435;SDS011;48480;50.252;18.848;2023-07-29T02:53:22;8.10;;;4.80;;
62435;SDS011;48480;50.252;18.848;2023-07-29T02:56:06;6.10;;;4.10;;
62435;SDS011;48480;50.252;18.848;2023-07-29T02:58:53;6.00;;;4.30;;
62435;SDS011;48480;50.252;18.848;2023-07-29T03:01:36;6.40;;;4.80;;
62435;SDS011;48480;50.252;18.848;2023-07-29T03:04:21;5.50;;;4.30;;
62435;SDS011;48480;50.252;18.848;2023-07-29T03:07:05;5.70;;;4.40;;
62435;SDS011;48480;50.252;18.848;2023-07-29T03:09:49;5.90;;;4.40;;
62435;SDS011;48480;50.252;18.848;2023-07-29T03:12:32;4.60;;;4.00;;
62435;SDS011;48480;50.252;18.848;2023-07-29T03:15:16;5.30;;;4.10;;
62435;SDS011;48480;50.252;18.848;2023-07-29T03:18:00;6.70;;;4.00;;
62435;SDS011;48480;50.252;18.848;2023-07-29T03:20:45;4.80;;;3.90;;
62435;SDS011;48480;50.252;18.848;2023-07-29T03:23:29;6.70;;;4.00;;
62435;SDS011;48480;50.252;18.848;2023-07-29T03:26:14;6.70;;;4.40;;
62435;SDS011;48480;50.252;18.848;2023-07-29T03:28:58;6.40;;;4.40;;
62435;SDS011;48480;50.252;18.848;2023-07-29T03:31:42;5.40;;;4.60;;
62435;SDS011;48480;50.252;18.848;2023-07-29T03:34:26;5.60;;;4.00;;
62435;SDS011;48480;50.252;18.848;2023-07-29T03:37:11;5.40;;;4.40;;
62435;SDS011;48480;50.252;18.848;2023-07-29T03:39:56;6.00;;;4.50;;
62435;SDS011;48480;50.252;18.848;2023-07-29T03:42:39;7.20;;;4.40;;
62435;SDS011;48480;50.252;18.848;2023-07-29T03:45:23;7.70;;;4.50;;
62435;SDS011;48480;50.252;18.848;2023-07-29T03:48:07;5.60;;;4.60;;
62435;SDS011;48480;50.252;18.848;2023-07-29T03:50:52;6.50;;;4.80;;
62435;SDS011;48480;50.252;18.848;2023-07-29T03:53:36;6.80;;;4.10;;
62435;SDS011;48480;50.252;18.848;2023-07-29T03:56:20;6.20;;;4.20;;
62435;SDS011;48480;50.252;18.848;2023-07-29T03:59:05;6.30;;;4.50;;
62435;SDS011;48480;50.252;18.848;2023-07-29T04:01:49;5.00;;;4.40;;
62435;SDS011;48480;50.252;18.848;2023-07-29T04:04:33;6.70;;;4.50;;
62435;SDS011;48480;50.252;18.848;2023-07-29T04:07:17;6.40;;;4.60;;
62435;SDS011;48480;50.252;18.848;2023-07-29T04:10:01;8.60;;;4.50;;
62435;SDS011;48480;50.252;18.848;2023-07-29T04:12:46;6.30;;;4.70;;
62435;SDS011;48480;50.252;18.848;2023-07-29T04:15:30;6.40;;;5.00;;
62435;SDS011;48480;50.252;18.848;2023-07-29T04:18:14;5.30;;;4.30;;
62435;SDS011;48480;50.252;18.848;2023-07-29T04:20:58;9.50;;;4.80;;
62435;SDS011;48480;50.252;18.848;2023-07-29T04:23:42;6.80;;;5.00;;
62435;SDS011;48480;50.252;18.848;2023-07-29T04:26:26;5.90;;;4.60;;
62435;SDS011;48480;50.252;18.848;2023-07-29T04:29:11;5.80;;;4.70;;
62435;SDS011;48480;50.252;18.848;2023-07-29T04:31:55;5.40;;;4.20;;
62435;SDS011;48480;50.252;18.848;2023-07-29T04:34:40;5.80;;;4.30;;
62435;SDS011;48480;50.252;18.848;2023-07-29T04:37:23;5.70;;;4.50;;
62435;SDS011;48480;50.252;18.848;2023-07-29T04:40:08;5.90;;;4.60;;
62435;SDS011;48480;50.252;18.848;2023-07-29T04:42:52;6.70;;;4.40;;
62435;SDS011;48480;50.252;18.848;2023-07-29T04:45:36;6.00;;;4.40;;
62435;SDS011;48480;50.252;18.848;2023-07-29T04:48:26;6.00;;;4.40;;
62435;SDS011;48480;50.252;18.848;2023-07-29T04:51:10;7.40;;;4.20;;
62435;SDS011;48480;50.252;18.848;2023-07-29T04:53:54;5.30;;;3.90;;
62435;SDS011;48480;50.252;18.848;2023-07-29T04:56:38;6.90;;;4.30;;
62435;SDS011;48480;50.252;18.848;2023-07-29T04:59:22;7.50;;;4.20;;
62435;SDS011;48480;50.252;18.848;2023-07-29T05:02:07;6.10;;;4.30;;
62435;SDS011;48480;50.252;18.848;2023-07-29T05:04:51;7.70;;;4.20;;
62435;SDS011;48480;50.252;18.848;2023-07-29T05:07:36;7.80;;;4.60;;
62435;SDS011;48480;50.252;18.848;2023-07-29T05:10:20;5.60;;;4.70;;
62435;SDS011;48480;50.252;18.848;2023-07-29T05:13:04;7.40;;;4.30;;
62435;SDS011;48480;50.252;18.848;2023-07-29T05:15:48;5.40;;;4.50;;
62435;SDS011;48480;50.252;18.848;2023-07-29T05:18:34;4.50;;;3.90;;
62435;SDS011;48480;50.252;18.848;2023-07-29T05:21:18;6.00;;;4.20;;
62435;SDS011;48480;50.252;18.848;2023-07-29T05:24:02;5.40;;;4.10;;
62435;SDS011;48480;50.252;18.848;2023-07-29T05:26:46;7.50;;;4.00;;
62435;SDS011;48480;50.252;18.848;2023-07-29T05:29:30;5.70;;;3.90;;
62435;SDS011;48480;50.252;18.848;2023-07-29T05:32:14;7.00;;;3.50;;
62435;SDS011;48480;50.252;18.848;2023-07-29T05:34:58;5.60;;;4.20;;
62435;SDS011;48480;50.252;18.848;2023-07-29T05:37:42;8.90;;;4.10;;
62435;SDS011;48480;50.252;18.848;2023-07-29T05:40:26;7.60;;;4.00;;
62435;SDS011;48480;50.252;18.848;2023-07-29T05:43:11;6.40;;;3.70;;
62435;SDS011;48480;50.252;18.848;2023-07-29T05:45:55;9.10;;;4.10;;
62435;SDS011;48480;50.252;18.848;2023-07-29T05:48:39;6.60;;;3.90;;
62435;SDS011;48480;50.252;18.848;2023-07-29T05:51:24;6.30;;;3.50;;
62435;SDS011;48480;50.252;18.848;2023-07-29T05:54:08;6.90;;;3.40;;
62435;SDS011;48480;50.252;18.848;2023-07-29T05:56:52;5.90;;;3.60;;
62435;SDS011;48480;50.252;18.848;2023-07-29T05:59:36;4.40;;;3.20;;
62435;SDS011;48480;50.252;18.848;2023-07-29T06:02:21;4.10;;;2.90;;
62435;SDS011;48480;50.252;18.848;2023-07-29T06:05:05;4.10;;;3.10;;
62435;SDS011;48480;50.252;18.848;2023-07-29T06:07:50;4.20;;;2.90;;
62435;SDS011;48480;50.252;18.848;2023-07-29T06:10:34;3.70;;;2.60;;
62435;SDS011;48480;50.252;18.848;2023-07-29T06:13:19;4.10;;;2.80;;
62435;SDS011;48480;50.252;18.848;2023-07-29T06:16:06;3.50;;;2.70;;
62435;SDS011;48480;50.252;18.848;2023-07-29T06:18:51;9.60;;;3.40;;
62435;SDS011;48480;50.252;18.848;2023-07-29T06:21:36;25.90;;;5.00;;
62435;SDS011;48480;50.252;18.848;2023-07-29T06:24:22;23.30;;;4.50;;
62435;SDS011;48480;50.252;18.848;2023-07-29T06:27:08;4.80;;;2.70;;
62435;SDS011;48480;50.252;18.848;2023-07-29T06:29:53;5.00;;;2.70;;
62435;SDS011;48480;50.252;18.848;2023-07-29T06:32:39;3.10;;;2.20;;
62435;SDS011;48480;50.252;18.848;2023-07-29T06:35:23;4.00;;;2.10;;
62435;SDS011;48480;50.252;18.848;2023-07-29T06:38:07;3.50;;;2.30;;
62435;SDS011;48480;50.252;18.848;2023-07-29T06:40:52;6.80;;;2.80;;
62435;SDS011;48480;50.252;18.848;2023-07-29T06:43:40;7.10;;;2.90;;
62435;SDS011;48480;50.252;18.848;2023-07-29T06:46:26;4.30;;;2.80;;
62435;SDS011;48480;50.252;18.848;2023-07-29T06:49:11;4.40;;;2.40;;
62435;SDS011;48480;50.252;18.848;2023-07-29T06:51:55;3.70;;;2.60;;
62435;SDS011;48480;50.252;18.848;2023-07-29T06:54:40;3.40;;;2.70;;
62435;SDS011;48480;50.252;18.848;2023-07-29T06:57:24;7.60;;;2.70;;
62435;SDS011;48480;50.252;18.848;2023-07-29T07:00:08;7.60;;;2.90;;
62435;SDS011;48480;50.252;18.848;2023-07-29T07:02:53;16.60;;;3.90;;
62435;SDS011;48480;50.252;18.848;2023-07-29T07:05:38;5.60;;;2.80;;
62435;SDS011;48480;50.252;18.848;2023-07-29T07:08:22;4.90;;;2.80;;
62435;SDS011;48480;50.252;18.848;2023-07-29T07:11:05;4.20;;;2.80;;
62435;SDS011;48480;50.252;18.848;2023-07-29T07:13:50;4.90;;;2.60;;
62435;SDS011;48480;50.252;18.848;2023-07-29T07:16:34;3.40;;;2.90;;
62435;SDS011;48480;50.252;18.848;2023-07-29T07:19:20;4.90;;;3.00;;
62435;SDS011;48480;50.252;18.848;2023-07-29T07:22:04;3.50;;;2.90;;
62435;SDS011;48480;50.252;18.848;2023-07-29T07:24:49;3.30;;;2.80;;
62435;SDS011;48480;50.252;18.848;2023-07-29T07:27:33;4.30;;;2.30;;
62435;SDS011;48480;50.252;18.848;2023-07-29T07:30:17;3.60;;;2.30;;
62435;SDS011;48480;50.252;18.848;2023-07-29T07:33:01;2.30;;;1.50;;
62435;SDS011;48480;50.252;18.848;2023-07-29T07:35:46;3.10;;;1.70;;
62435;SDS011;48480;50.252;18.848;2023-07-29T07:38:30;2.80;;;1.60;;
62435;SDS011;48480;50.252;18.848;2023-07-29T07:41:14;3.10;;;1.80;;
62435;SDS011;48480;50.252;18.848;2023-07-29T07:43:59;2.80;;;1.70;;
62435;SDS011;48480;50.252;18.848;2023-07-29T07:46:43;12.40;;;2.80;;
62435;SDS011;48480;50.252;18.848;2023-07-29T07:49:28;4.30;;;2.00;;
62435;SDS011;48480;50.252;18.848;2023-07-29T07:52:12;3.20;;;1.40;;
62435;SDS011;48480;50.252;18.848;2023-07-29T07:54:57;2.20;;;1.30;;
62435;SDS011;48480;50.252;18.848;2023-07-29T07:57:41;1.90;;;1.40;;
62435;SDS011;48480;50.252;18.848;2023-07-29T08:00:25;2.90;;;1.50;;
62435;SDS011;48480;50.252;18.848;2023-07-29T08:03:09;2.80;;;1.50;;
62435;SDS011;48480;50.252;18.848;2023-07-29T08:05:54;5.00;;;1.70;;
62435;SDS011;48480;50.252;18.848;2023-07-29T08:08:38;3.00;;;1.40;;
62435;SDS011;48480;50.252;18.848;2023-07-29T08:11:22;2.50;;;1.50;;
62435;SDS011;48480;50.252;18.848;2023-07-29T08:14:07;2.20;;;1.30;;
62435;SDS011;48480;50.252;18.848;2023-07-29T08:16:51;1.50;;;1.20;;
62435;SDS011;48480;50.252;18.848;2023-07-29T08:19:36;1.90;;;1.20;;
62435;SDS011;48480;50.252;18.848;2023-07-29T08:22:21;1.70;;;1.30;;
62435;SDS011;48480;50.252;18.848;2023-07-29T08:25:05;2.70;;;1.70;;
62435;SDS011;48480;50.252;18.848;2023-07-29T08:27:50;3.30;;;1.40;;
62435;SDS011;48480;50.252;18.848;2023-07-29T08:30:34;3.20;;;1.50;;
62435;SDS011;48480;50.252;18.848;2023-07-29T08:33:19;2.20;;;1.50;;
62435;SDS011;48480;50.252;18.848;2023-07-29T08:36:03;2.60;;;1.40;;
62435;SDS011;48480;50.252;18.848;2023-07-29T08:38:49;2.00;;;1.40;;
62435;SDS011;48480;50.252;18.848;2023-07-29T08:41:41;2.30;;;1.50;;
62435;SDS011;48480;50.252;18.848;2023-07-29T08:44:49;2.40;;;1.40;;
62435;SDS011;48480;50.252;18.848;2023-07-29T08:47:35;2.50;;;1.50;;
62435;SDS011;48480;50.252;18.848;2023-07-29T08:50:20;4.00;;;1.40;;
62435;SDS011;48480;50.252;18.848;2023-07-29T08:53:09;2.70;;;1.40;;
62435;SDS011;48480;50.252;18.848;2023-07-29T08:55:54;2.40;;;1.70;;
62435;SDS011;48480;50.252;18.848;2023-07-29T08:58:39;2.70;;;1.40;;
62435;SDS011;48480;50.252;18.848;2023-07-29T09:01:24;2.70;;;1.70;;
62435;SDS011;48480;50.252;18.848;2023-07-29T09:04:09;2.50;;;2.00;;
62435;SDS011;48480;50.252;18.848;2023-07-29T09:06:54;2.70;;;1.60;;
62435;SDS011;48480;50.252;18.848;2023-07-29T09:09:40;3.60;;;1.40;;
62435;SDS011;48480;50.252;18.848;2023-07-29T09:12:26;3.50;;;1.60;;
62435;SDS011;48480;50.252;18.848;2023-07-29T09:15:10;4.00;;;1.30;;
62435;SDS011;48480;50.252;18.848;2023-07-29T09:17:55;2.90;;;1.50;;
62435;SDS011;48480;50.252;18.848;2023-07-29T09:20:42;2.50;;;1.50;;
62435;SDS011;48480;50.252;18.848;2023-07-29T09:23:27;2.20;;;1.50;;
62435;SDS011;48480;50.252;18.848;2023-07-29T09:26:12;11.40;;;2.20;;
62435;SDS011;48480;50.252;18.848;2023-07-29T09:28:57;1.50;;;1.30;;
62435;SDS011;48480;50.252;18.848;2023-07-29T09:31:43;2.40;;;1.30;;
62435;SDS011;48480;50.252;18.848;2023-07-29T09:34:26;1.60;;;1.00;;
62435;SDS011;48480;50.252;18.848;2023-07-29T09:37:20;4.60;;;1.20;;
62435;SDS011;48480;50.252;18.848;2023-07-29T09:40:15;5.10;;;1.40;;
62435;SDS011;48480;50.252;18.848;2023-07-29T09:43:00;1.60;;;1.00;;
62435;SDS011;48480;50.252;18.848;2023-07-29T09:45:45;2.00;;;1.40;;
62435;SDS011;48480;50.252;18.848;2023-07-29T09:48:36;1.90;;;1.20;;
62435;SDS011;48480;50.252;18.848;2023-07-29T09:51:23;2.20;;;1.20;;
62435;SDS011;48480;50.252;18.848;2023-07-29T09:54:07;2.50;;;1.20;;
62435;SDS011;48480;50.252;18.848;2023-07-29T09:56:57;4.70;;;1.50;;
62435;SDS011;48480;50.252;18.848;2023-07-29T09:59:41;3.50;;;1.40;;
62435;SDS011;48480;50.252;18.848;2023-07-29T10:02:25;2.70;;;1.30;;
62435;SDS011;48480;50.252;18.848;2023-07-29T10:05:12;2.20;;;1.30;;
62435;SDS011;48480;50.252;18.848;2023-07-29T10:07:56;1.70;;;1.40;;
62435;SDS011;48480;50.252;18.848;2023-07-29T10:10:43;1.80;;;1.40;;
62435;SDS011;48480;50.252;18.848;2023-07-29T10:13:28;5.10;;;1.80;;
62435;SDS011;48480;50.252;18.848;2023-07-29T10:16:12;3.10;;;1.70;;
62435;SDS011;48480;50.252;18.848;2023-07-29T10:18:56;2.90;;;1.60;;
62435;SDS011;48480;50.252;18.848;2023-07-29T10:21:41;5.20;;;1.90;;
62435;SDS011;48480;50.252;18.848;2023-07-29T10:24:32;3.00;;;1.60;;
62435;SDS011;48480;50.252;18.848;2023-07-29T10:27:17;3.40;;;1.70;;
62435;SDS011;48480;50.252;18.848;2023-07-29T10:30:04;4.20;;;1.60;;
62435;SDS011;48480;50.252;18.848;2023-07-29T10:32:50;3.00;;;1.60;;
62435;SDS011;48480;50.252;18.848;2023-07-29T10:35:37;6.00;;;1.80;;
62435;SDS011;48480;50.252;18.848;2023-07-29T10:38:22;2.50;;;1.90;;
62435;SDS011;48480;50.252;18.848;2023-07-29T10:41:08;4.30;;;1.70;;
62435;SDS011;48480;50.252;18.848;2023-07-29T10:43:55;3.00;;;1.50;;
62435;SDS011;48480;50.252;18.848;2023-07-29T10:46:39;2.20;;;1.50;;
62435;SDS011;48480;50.252;18.848;2023-07-29T10:49:23;4.10;;;1.50;;
62435;SDS011;48480;50.252;18.848;2023-07-29T10:52:08;2.30;;;1.60;;
62435;SDS011;48480;50.252;18.848;2023-07-29T10:54:57;2.10;;;1.50;;
62435;SDS011;48480;50.252;18.848;2023-07-29T10:57:45;1.90;;;1.50;;
62435;SDS011;48480;50.252;18.848;2023-07-29T11:00:30;2.30;;;1.50;;
62435;SDS011;48480;50.252;18.848;2023-07-29T11:03:14;2.90;;;1.60;;
62435;SDS011;48480;50.252;18.848;2023-07-29T11:05:58;3.10;;;1.70;;
62435;SDS011;48480;50.252;18.848;2023-07-29T11:08:48;3.30;;;1.70;;
62435;SDS011;48480;50.252;18.848;2023-07-29T11:11:34;4.80;;;1.70;;
62435;SDS011;48480;50.252;18.848;2023-07-29T11:14:18;2.90;;;1.50;;
62435;SDS011;48480;50.252;18.848;2023-07-29T11:17:03;2.60;;;1.70;;
62435;SDS011;48480;50.252;18.848;2023-07-29T11:19:48;3.40;;;1.80;;
62435;SDS011;48480;50.252;18.848;2023-07-29T11:22:34;4.80;;;1.90;;
62435;SDS011;48480;50.252;18.848;2023-07-29T11:25:19;3.10;;;1.80;;
62435;SDS011;48480;50.252;18.848;2023-07-29T11:28:06;2.50;;;1.50;;
62435;SDS011;48480;50.252;18.848;2023-07-29T11:30:50;2.40;;;1.70;;
62435;SDS011;48480;50.252;18.848;2023-07-29T11:33:38;4.70;;;2.00;;
62435;SDS011;48480;50.252;18.848;2023-07-29T11:36:22;4.40;;;2.00;;
62435;SDS011;48480;50.252;18.848;2023-07-29T11:39:11;2.80;;;2.10;;
62435;SDS011;48480;50.252;18.848;2023-07-29T11:41:55;4.80;;;2.30;;
62435;SDS011;48480;50.252;18.848;2023-07-29T11:44:39;3.70;;;2.30;;
62435;SDS011;48480;50.252;18.848;2023-07-29T11:47:24;2.40;;;2.00;;
62435;SDS011;48480;50.252;18.848;2023-07-29T11:50:09;3.80;;;2.10;;
62435;SDS011;48480;50.252;18.848;2023-07-29T11:52:55;3.20;;;2.00;;
62435;SDS011;48480;50.252;18.848;2023-07-29T11:55:39;3.20;;;2.20;;
62435;SDS011;48480;50.252;18.848;2023-07-29T11:58:23;3.30;;;1.70;;
62435;SDS011;48480;50.252;18.848;2023-07-29T12:01:07;4.60;;;1.90;;
62435;SDS011;48480;50.252;18.848;2023-07-29T12:03:51;2.70;;;1.90;;
62435;SDS011;48480;50.252;18.848;2023-07-29T12:06:36;3.00;;;1.80;;
62435;SDS011;48480;50.252;18.848;2023-07-29T12:09:21;3.20;;;1.70;;
62435;SDS011;48480;50.252;18.848;2023-07-29T12:12:06;2.30;;;1.70;;
62435;SDS011;48480;50.252;18.848;2023-07-29T12:14:51;4.80;;;1.80;;
62435;SDS011;48480;50.252;18.848;2023-07-29T12:17:39;3.30;;;1.80;;
62435;SDS011;48480;50.252;18.848;2023-07-29T12:20:28;3.90;;;2.00;;
62435;SDS011;48480;50.252;18.848;2023-07-29T12:23:13;4.70;;;4.00;;
62435;SDS011;48480;50.252;18.848;2023-07-29T12:25:58;8.50;;;2.10;;
62435;SDS011;48480;50.252;18.848;2023-07-29T12:28:46;4.40;;;2.20;;
62435;SDS011;48480;50.252;18.848;2023-07-29T12:31:31;5.50;;;2.10;;
62435;SDS011;48480;50.252;18.848;2023-07-29T12:34:19;3.60;;;1.80;;
62435;SDS011;48480;50.252;18.848;2023-07-29T12:37:04;3.60;;;2.00;;
62435;SDS011;48480;50.252;18.848;2023-07-29T12:39:50;8.50;;;2.20;;
62435;SDS011;48480;50.252;18.848;2023-07-29T12:42:35;2.70;;;1.50;;
62435;SDS011;48480;50.252;18.848;2023-07-29T12:45:19;2.50;;;1.50;;
62435;SDS011;48480;50.252;18.848;2023-07-29T12:48:04;5.50;;;1.70;;
62435;SDS011;48480;50.252;18.848;2023-07-29T12:50:48;4.90;;;1.70;;
62435;SDS011;48480;50.252;18.848;2023-07-29T12:53:32;3.10;;;1.60;;
62435;SDS011;48480;50.252;18.848;2023-07-29T12:56:16;3.40;;;1.60;;
62435;SDS011;48480;50.252;18.848;2023-07-29T12:59:01;3.00;;;1.50;;
62435;SDS011;48480;50.252;18.848;2023-07-29T13:01:46;3.80;;;1.50;;
62435;SDS011;48480;50.252;18.848;2023-07-29T13:04:30;2.20;;;1.40;;
62435;SDS011;48480;50.252;18.848;2023-07-29T13:07:14;1.90;;;1.30;;
62435;SDS011;48480;50.252;18.848;2023-07-29T13:09:58;1.80;;;1.20;;
62435;SDS011;48480;50.252;18.848;2023-07-29T13:12:43;2.60;;;1.20;;
62435;SDS011;48480;50.252;18.848;2023-07-29T13:15:27;1.40;;;1.00;;
62435;SDS011;48480;50.252;18.848;2023-07-29T13:18:11;6.30;;;1.30;;
62435;SDS011;48480;50.252;18.848;2023-07-29T13:20:55;2.70;;;1.30;;
62435;SDS011;48480;50.252;18.848;2023-07-29T13:23:39;5.90;;;1.60;;
62435;SDS011;48480;50.252;18.848;2023-07-29T13:26:24;2.20;;;1.30;;
62435;SDS011;48480;50.252;18.848;2023-07-29T13:29:08;2.20;;;1.50;;
62435;SDS011;48480;50.252;18.848;2023-07-29T13:31:52;2.50;;;1.10;;
62435;SDS011;48480;50.252;18.848;2023-07-29T13:34:36;1.90;;;1.20;;
62435;SDS011;48480;50.252;18.848;2023-07-29T13:37:21;4.30;;;1.60;;
62435;SDS011;48480;50.252;18.848;2023-07-29T13:40:05;2.30;;;1.20;;
62435;SDS011;48480;50.252;18.848;2023-07-29T13:42:50;9.80;;;1.70;;
62435;SDS011;48480;50.252;18.848;2023-07-29T13:45:34;18.70;;;2.00;;
62435;SDS011;48480;50.252;18.848;2023-07-29T13:48:19;7.50;;;1.70;;
62435;SDS011;48480;50.252;18.848;2023-07-29T13:51:03;15.40;;;2.00;;
62435;SDS011;48480;50.252;18.848;2023-07-29T13:53:47;25.30;;;2.70;;
62435;SDS011;48480;50.252;18.848;2023-07-29T13:56:32;3.70;;;1.00;;
62435;SDS011;48480;50.252;18.848;2023-07-29T13:59:16;4.50;;;1.20;;
62435;SDS011;48480;50.252;18.848;2023-07-29T14:02:00;2.70;;;1.00;;
62435;SDS011;48480;50.252;18.848;2023-07-29T14:04:44;3.30;;;1.20;;
62435;SDS011;48480;50.252;18.848;2023-07-29T14:07:28;4.20;;;1.20;;
62435;SDS011;48480;50.252;18.848;2023-07-29T14:10:12;1.90;;;1.00;;
62435;SDS011;48480;50.252;18.848;2023-07-29T14:12:56;5.70;;;1.30;;
62435;SDS011;48480;50.252;18.848;2023-07-29T14:15:40;3.80;;;1.10;;
62435;SDS011;48480;50.252;18.848;2023-07-29T14:18:25;3.50;;;1.20;;
62435;SDS011;48480;50.252;18.848;2023-07-29T14:21:09;3.40;;;1.20;;
62435;SDS011;48480;50.252;18.848;2023-07-29T14:23:53;4.60;;;1.20;;
62435;SDS011;48480;50.252;18.848;2023-07-29T14:26:37;5.70;;;1.70;;
62435;SDS011;48480;50.252;18.848;2023-07-29T14:29:21;2.70;;;1.00;;
62435;SDS011;48480;50.252;18.848;2023-07-29T14:32:05;1.90;;;1.20;;
62435;SDS011;48480;50.252;18.848;2023-07-29T14:34:50;2.10;;;1.30;;
62435;SDS011;48480;50.252;18.848;2023-07-29T14:37:34;2.90;;;1.40;;
62435;SDS011;48480;50.252;18.848;2023-07-29T14:40:18;2.00;;;1.30;;
62435;SDS011;48480;50.252;18.848;2023-07-29T14:43:02;2.70;;;1.30;;
62435;SDS011;48480;50.252;18.848;2023-07-29T14:45:46;1.80;;;1.30;;
62435;SDS011;48480;50.252;18.848;2023-07-29T14:48:31;2.50;;;1.20;;
62435;SDS011;48480;50.252;18.848;2023-07-29T14:51:15;1.90;;;1.20;;
62435;SDS011;48480;50.252;18.848;2023-07-29T14:53:59;2.20;;;1.20;;
62435;SDS011;48480;50.252;18.848;2023-07-29T14:56:43;1.60;;;1.30;;
62435;SDS011;48480;50.252;18.848;2023-07-29T14:59:27;2.80;;;1.20;;
62435;SDS011;48480;50.252;18.848;2023-07-29T15:02:11;2.20;;;1.10;;
62435;SDS011;48480;50.252;18.848;2023-07-29T15:04:56;1.90;;;1.10;;
62435;SDS011;48480;50.252;18.848;2023-07-29T15:07:40;1.80;;;1.10;;
62435;SDS011;48480;50.252;18.848;2023-07-29T15:10:24;1.50;;;1.20;;
62435;SDS011;48480;50.252;18.848;2023-07-29T15:13:09;1.80;;;1.30;;
62435;SDS011;48480;50.252;18.848;2023-07-29T15:15:53;1.90;;;1.20;;
62435;SDS011;48480;50.252;18.848;2023-07-29T15:18:37;2.30;;;1.30;;
62435;SDS011;48480;50.252;18.848;2023-07-29T15:21:22;1.70;;;1.10;;
62435;SDS011;48480;50.252;18.848;2023-07-29T15:24:08;1.70;;;1.20;;
62435;SDS011;48480;50.252;18.848;2023-07-29T15:26:52;1.30;;;1.00;;
62435;SDS011;48480;50.252;18.848;2023-07-29T15:29:39;2.40;;;1.10;;
62435;SDS011;48480;50.252;18.848;2023-07-29T15:32:23;1.70;;;0.90;;
62435;SDS011;48480;50.252;18.848;2023-07-29T15:35:08;1.90;;;1.20;;
62435;SDS011;48480;50.252;18.848;2023-07-29T15:37:52;2.40;;;1.10;;
62435;SDS011;48480;50.252;18.848;2023-07-29T15:40:37;2.00;;;1.40;;
62435;SDS011;48480;50.252;18.848;2023-07-29T15:43:22;2.00;;;1.20;;
62435;SDS011;48480;50.252;18.848;2023-07-29T15:46:06;2.10;;;1.30;;
62435;SDS011;48480;50.252;18.848;2023-07-29T15:48:50;2.00;;;1.20;;
62435;SDS011;48480;50.252;18.848;2023-07-29T15:51:34;2.30;;;1.60;;
62435;SDS011;48480;50.252;18.848;2023-07-29T15:54:19;2.20;;;1.30;;
62435;SDS011;48480;50.252;18.848;2023-07-29T15:57:03;2.70;;;1.30;;
62435;SDS011;48480;50.252;18.848;2023-07-29T15:59:48;2.30;;;1.50;;
62435;SDS011;48480;50.252;18.848;2023-07-29T16:02:32;1.70;;;1.20;;
62435;SDS011;48480;50.252;18.848;2023-07-29T16:05:17;2.00;;;1.20;;
62435;SDS011;48480;50.252;18.848;2023-07-29T16:08:02;2.50;;;1.80;;
62435;SDS011;48480;50.252;18.848;2023-07-29T16:10:47;1.60;;;1.30;;
62435;SDS011;48480;50.252;18.848;2023-07-29T16:13:31;1.80;;;1.20;;
62435;SDS011;48480;50.252;18.848;2023-07-29T16:16:15;1.90;;;1.40;;
62435;SDS011;48480;50.252;18.848;2023-07-29T16:18:59;2.30;;;1.40;;
62435;SDS011;48480;50.252;18.848;2023-07-29T16:21:43;2.60;;;1.20;;